Time;durP1;ratioP1;P1;durP2;ratioP2;P2;SDS_P1;SDS_P2;PMS_P1;PMS_P2;Temp;Humidity;BMP_temperature;BMP_pressure;BME280_temperature;BME280_humidity;BME280_pressure;Samples;Min_cycle;Max_cycle;Signal;HPM_P1;HPM_P2
2023/06/18 00:00:49;;;;;;;7.65;7.05;;;;;;;;;;5117189;28;20521;-62
2023/06/18 00:03:17;;;;;;;7.53;6.88;;;;;;;;;;5117930;28;20203;-63
2023/06/18 00:05:46;;;;;;;7.15;6.65;;;;;;;;;;5117907;28;20198;-62
2023/06/18 00:08:14;;;;;;;7.03;6.53;;;;;;;;;;5117564;28;20210;-62
2023/06/18 00:10:41;;;;;;;7.35;6.85;;;;;;;;;;5117688;28;20206;-63
2023/06/18 00:13:09;;;;;;;7.18;6.68;;;;;;;;;;5117604;28;20289;-63
2023/06/18 00:15:36;;;;;;;7.05;6.55;;;;;;;;;;5117891;28;20200;-62
2023/06/18 00:18:05;;;;;;;7.30;6.80;;;;;;;;;;5117474;28;20231;-62
2023/06/18 00:20:34;;;;;;;7.88;7.05;;;;;;;;;;5117638;28;20683;-63
2023/06/18 00:23:02;;;;;;;7.05;6.55;;;;;;;;;;5117644;28;20301;-62
2023/06/18 00:25:30;;;;;;;7.40;6.80;;;;;;;;;;5117684;28;20207;-63
2023/06/18 00:27:57;;;;;;;7.47;6.88;;;;;;;;;;5117820;28;20203;-63
2023/06/18 00:30:25;;;;;;;7.15;6.65;;;;;;;;;;5117990;28;20669;-63
2023/06/18 00:32:53;;;;;;;7.30;6.75;;;;;;;;;;5117914;28;20267;-62
2023/06/18 00:35:20;;;;;;;7.40;6.90;;;;;;;;;;5117640;28;20268;-62
2023/06/18 00:37:48;;;;;;;7.13;6.53;;;;;;;;;;5117940;28;20203;-62
2023/06/18 00:40:17;;;;;;;7.50;6.90;;;;;;;;;;5117530;28;20262;-62
2023/06/18 00:42:48;;;;;;;7.50;6.97;;;;;;;;;;5117510;28;20267;-62
2023/06/18 00:45:16;;;;;;;7.35;6.75;;;;;;;;;;5117715;28;20301;-62
2023/06/18 00:47:44;;;;;;;7.18;6.65;;;;;;;;;;5136109;27;20276;-62
2023/06/18 00:50:14;;;;;;;7.50;7.00;;;;;;;;;;5138124;28;20217;-62
2023/06/18 00:52:44;;;;;;;7.25;6.65;;;;;;;;;;5138343;27;20202;-62
2023/06/18 00:55:12;;;;;;;7.25;6.65;;;;;;;;;;5137841;27;20209;-62
2023/06/18 00:57:42;;;;;;;7.70;7.00;;;;;;;;;;5138313;27;20213;-62
2023/06/18 01:00:12;;;;;;;7.35;6.75;;;;;;;;;;5137974;27;20222;-62
2023/06/18 01:02:45;;;;;;;7.70;7.07;;;;;;;;;;5141395;27;20210;-63
2023/06/18 01:05:13;;;;;;;7.13;6.63;;;;;;;;;;5142052;27;20202;-62
2023/06/18 01:07:40;;;;;;;7.35;6.82;;;;;;;;;;5142256;27;20230;-63
2023/06/18 01:10:11;;;;;;;7.18;6.68;;;;;;;;;;5142092;27;20202;-62
2023/06/18 01:12:38;;;;;;;7.60;6.90;;;;;;;;;;5141987;27;20255;-62
2023/06/18 01:15:10;;;;;;;7.63;7.03;;;;;;;;;;5141515;27;20210;-63
2023/06/18 01:17:38;;;;;;;7.38;6.88;;;;;;;;;;5141773;27;20202;-63
2023/06/18 01:20:10;;;;;;;7.60;6.97;;;;;;;;;;5141855;27;20237;-62
2023/06/18 01:22:40;;;;;;;7.18;6.68;;;;;;;;;;5141819;27;20594;-63
2023/06/18 01:25:09;;;;;;;7.55;6.88;;;;;;;;;;5142182;27;20228;-62
2023/06/18 01:27:40;;;;;;;7.93;7.10;;;;;;;;;;5141513;27;20255;-62
2023/06/18 01:30:11;;;;;;;6.95;6.35;;;;;;;;;;5141416;27;20293;-62
2023/06/18 01:32:38;;;;;;;7.00;6.40;;;;;;;;;;5141495;27;20210;-62
2023/06/18 01:35:07;;;;;;;7.40;6.80;;;;;;;;;;5141435;27;20202;-62
2023/06/18 01:37:43;;;;;;;6.93;6.43;;;;;;;;;;5141548;27;20443;-62
2023/06/18 01:40:17;;;;;;;6.80;6.30;;;;;;;;;;5141591;27;20291;-63
2023/06/18 01:42:48;;;;;;;6.97;6.47;;;;;;;;;;5141818;27;20231;-62
2023/06/18 01:45:21;;;;;;;7.07;6.57;;;;;;;;;;5141354;27;20263;-62
2023/06/18 01:47:49;;;;;;;7.25;6.72;;;;;;;;;;5140823;27;20237;-62
2023/06/18 01:50:18;;;;;;;7.20;6.70;;;;;;;;;;5141120;27;20479;-62
2023/06/18 01:52:48;;;;;;;7.28;6.68;;;;;;;;;;5141395;27;20202;-62
2023/06/18 01:55:17;;;;;;;7.38;6.88;;;;;;;;;;5141356;27;20202;-62
2023/06/18 01:57:44;;;;;;;7.30;6.65;;;;;;;;;;5140844;27;20209;-63
2023/06/18 02:00:12;;;;;;;7.20;6.60;;;;;;;;;;5141354;27;20332;-62
2023/06/18 02:02:42;;;;;;;7.30;6.60;;;;;;;;;;5140968;27;20263;-62
2023/06/18 02:05:10;;;;;;;7.50;6.90;;;;;;;;;;5141371;27;20235;-62
2023/06/18 02:07:38;;;;;;;7.40;6.90;;;;;;;;;;5141363;27;20669;-63
2023/06/18 02:10:05;;;;;;;7.10;6.60;;;;;;;;;;5141137;27;20255;-63
2023/06/18 02:12:33;;;;;;;7.47;6.97;;;;;;;;;;5139382;27;20239;-62
2023/06/18 02:15:00;;;;;;;6.88;6.38;;;;;;;;;;5141079;27;20304;-63
2023/06/18 02:17:29;;;;;;;7.65;7.03;;;;;;;;;;5140669;27;20206;-63
2023/06/18 02:19:57;;;;;;;7.55;6.95;;;;;;;;;;5140328;27;20700;-62
2023/06/18 02:22:25;;;;;;;7.22;6.57;;;;;;;;;;5140527;27;20262;-62
2023/06/18 02:24:53;;;;;;;6.78;6.28;;;;;;;;;;5140613;27;20252;-63
2023/06/18 02:27:20;;;;;;;7.35;6.75;;;;;;;;;;5140339;27;20206;-63
2023/06/18 02:29:48;;;;;;;7.10;6.53;;;;;;;;;;5140206;27;20289;-62
2023/06/18 02:32:16;;;;;;;6.85;6.25;;;;;;;;;;5140545;27;20202;-62
2023/06/18 02:34:43;;;;;;;6.50;6.00;;;;;;;;;;5139963;27;20203;-62
2023/06/18 02:37:12;;;;;;;6.43;6.03;;;;;;;;;;5139847;27;20202;-62
2023/06/18 02:39:40;;;;;;;6.70;6.20;;;;;;;;;;5140310;27;20288;-63
2023/06/18 02:42:09;;;;;;;6.78;6.28;;;;;;;;;;5139963;27;20233;-63
2023/06/18 02:44:36;;;;;;;7.05;6.55;;;;;;;;;;5140311;27;20206;-62
2023/06/18 02:47:04;;;;;;;6.80;6.30;;;;;;;;;;5140102;27;20234;-62
2023/06/18 02:49:33;;;;;;;7.10;6.60;;;;;;;;;;5140150;27;20554;-63
2023/06/18 02:52:00;;;;;;;6.70;6.13;;;;;;;;;;5139804;27;20285;-63
2023/06/18 02:54:29;;;;;;;6.68;6.18;;;;;;;;;;5139968;27;20206;-63
2023/06/18 02:56:57;;;;;;;6.80;6.30;;;;;;;;;;5139887;27;20202;-62
2023/06/18 02:59:25;;;;;;;7.07;6.57;;;;;;;;;;5140043;27;20559;-62
2023/06/18 03:01:53;;;;;;;6.63;6.13;;;;;;;;;;5139823;27;20202;-63
2023/06/18 03:04:20;;;;;;;6.95;6.43;;;;;;;;;;5139986;27;20206;-63
2023/06/18 03:06:48;;;;;;;6.60;6.20;;;;;;;;;;5139924;27;20206;-63
2023/06/18 03:09:15;;;;;;;7.38;6.80;;;;;;;;;;5140049;27;20585;-63
2023/06/18 03:11:44;;;;;;;6.70;6.20;;;;;;;;;;5139403;27;20210;-63
2023/06/18 03:14:12;;;;;;;7.13;6.63;;;;;;;;;;5139567;27;20202;-63
2023/06/18 03:16:40;;;;;;;6.82;6.32;;;;;;;;;;5139675;27;20242;-63
2023/06/18 03:19:07;;;;;;;6.82;6.32;;;;;;;;;;5139494;27;20621;-62
2023/06/18 03:21:35;;;;;;;7.03;6.43;;;;;;;;;;5139165;27;20297;-62
2023/06/18 03:24:02;;;;;;;6.50;6.00;;;;;;;;;;5138851;27;20202;-62
2023/06/18 03:26:31;;;;;;;6.85;6.25;;;;;;;;;;5139304;27;20267;-62
2023/06/18 03:29:00;;;;;;;6.45;5.85;;;;;;;;;;5139787;27;20210;-62
2023/06/18 03:31:28;;;;;;;6.78;6.30;;;;;;;;;;5139582;27;20240;-62
2023/06/18 03:34:01;;;;;;;6.80;6.30;;;;;;;;;;5139561;27;20215;-62
2023/06/18 03:36:29;;;;;;;7.20;6.60;;;;;;;;;;5139178;27;20210;-62
2023/06/18 03:38:56;;;;;;;7.10;6.60;;;;;;;;;;5139180;27;20210;-62
2023/06/18 03:41:25;;;;;;;7.53;6.82;;;;;;;;;;5139298;27;20238;-62
2023/06/18 03:43:53;;;;;;;6.55;6.05;;;;;;;;;;5139405;27;20664;-62
2023/06/18 03:46:21;;;;;;;6.88;6.38;;;;;;;;;;5138823;27;20242;-62
2023/06/18 03:48:49;;;;;;;6.72;6.20;;;;;;;;;;5138839;27;20198;-62
2023/06/18 03:51:16;;;;;;;6.53;5.93;;;;;;;;;;5139049;27;20206;-63
2023/06/18 03:53:44;;;;;;;7.25;6.75;;;;;;;;;;5139095;27;20301;-62
2023/06/18 03:56:12;;;;;;;6.75;6.25;;;;;;;;;;5139028;27;20202;-63
2023/06/18 03:58:39;;;;;;;7.30;6.70;;;;;;;;;;5138871;27;20245;-63
2023/06/18 04:01:08;;;;;;;6.93;6.43;;;;;;;;;;5139004;27;20286;-62
2023/06/18 04:03:37;;;;;;;6.70;6.10;;;;;;;;;;5139039;27;20201;-62
2023/06/18 04:06:04;;;;;;;6.60;6.00;;;;;;;;;;5139054;27;20221;-62
2023/06/18 04:08:33;;;;;;;6.35;5.85;;;;;;;;;;5138927;27;20197;-62
2023/06/18 04:11:01;;;;;;;7.93;6.35;;;;;;;;;;5138617;27;20271;-62
2023/06/18 04:13:29;;;;;;;7.03;6.50;;;;;;;;;;5138909;27;20210;-62
2023/06/18 04:15:56;;;;;;;6.97;6.47;;;;;;;;;;5139034;27;20213;-62
2023/06/18 04:18:25;;;;;;;6.90;6.38;;;;;;;;;;5138594;27;20221;-62
2023/06/18 04:20:54;;;;;;;6.70;6.20;;;;;;;;;;5138669;27;20226;-62
2023/06/18 04:23:21;;;;;;;6.53;6.03;;;;;;;;;;5138886;27;20301;-62
2023/06/18 04:25:49;;;;;;;6.53;6.03;;;;;;;;;;5138243;27;20206;-62
2023/06/18 04:28:16;;;;;;;6.57;6.07;;;;;;;;;;5138571;27;20482;-62
2023/06/18 04:30:43;;;;;;;7.35;6.75;;;;;;;;;;5138312;27;20209;-62
2023/06/18 04:33:12;;;;;;;6.88;6.28;;;;;;;;;;5138648;27;20238;-62
2023/06/18 04:35:39;;;;;;;7.75;7.15;;;;;;;;;;5138239;27;20202;-63
2023/06/18 04:38:09;;;;;;;7.40;6.90;;;;;;;;;;5142844;27;20621;-62
2023/06/18 04:40:36;;;;;;;7.28;6.68;;;;;;;;;;5143057;27;20573;-62
2023/06/18 04:43:04;;;;;;;7.10;6.60;;;;;;;;;;5142884;27;20214;-62
2023/06/18 04:45:31;;;;;;;7.15;6.65;;;;;;;;;;5142798;27;20210;-62
2023/06/18 04:47:59;;;;;;;8.00;7.30;;;;;;;;;;5142412;27;20249;-62
2023/06/18 04:50:26;;;;;;;7.10;6.55;;;;;;;;;;5142529;27;20198;-62
2023/06/18 04:52:53;;;;;;;7.45;6.90;;;;;;;;;;5142586;27;20468;-63
2023/06/18 04:55:22;;;;;;;7.50;6.90;;;;;;;;;;5142603;27;20205;-62
2023/06/18 04:57:49;;;;;;;7.53;6.93;;;;;;;;;;5143037;27;20202;-62
2023/06/18 05:00:20;;;;;;;7.30;6.70;;;;;;;;;;5142398;27;20226;-62
2023/06/18 05:02:47;;;;;;;7.30;6.80;;;;;;;;;;5142507;27;20198;-62
2023/06/18 05:05:15;;;;;;;7.85;7.25;;;;;;;;;;5142165;27;20708;-62
2023/06/18 05:07:42;;;;;;;7.72;7.10;;;;;;;;;;5142161;27;20229;-62
2023/06/18 05:10:10;;;;;;;7.78;7.00;;;;;;;;;;5142012;27;20206;-62
2023/06/18 05:12:38;;;;;;;7.50;7.00;;;;;;;;;;5141707;27;20202;-62
2023/06/18 05:15:07;;;;;;;7.55;6.95;;;;;;;;;;5142119;27;20241;-62
2023/06/18 05:17:35;;;;;;;7.90;7.20;;;;;;;;;;5142454;27;20499;-62
2023/06/18 05:20:03;;;;;;;8.10;7.50;;;;;;;;;;5142110;27;20222;-62
2023/06/18 05:22:31;;;;;;;7.72;7.10;;;;;;;;;;5141873;27;20304;-62
2023/06/18 05:24:59;;;;;;;8.48;7.78;;;;;;;;;;5141960;27;20262;-62
2023/06/18 05:27:28;;;;;;;7.45;6.95;;;;;;;;;;5141919;27;20578;-63
2023/06/18 05:29:56;;;;;;;8.70;8.00;;;;;;;;;;5141936;27;20294;-63
2023/06/18 05:32:24;;;;;;;8.25;7.55;;;;;;;;;;5141711;27;20209;-62
2023/06/18 05:34:51;;;;;;;7.97;7.38;;;;;;;;;;5141841;27;20275;-63
2023/06/18 05:37:18;;;;;;;7.68;7.18;;;;;;;;;;5142027;27;20214;-62
2023/06/18 05:39:46;;;;;;;8.40;7.70;;;;;;;;;;5141856;27;20240;-63
2023/06/18 05:42:13;;;;;;;8.20;7.60;;;;;;;;;;5141560;27;20266;-63
2023/06/18 05:44:41;;;;;;;9.05;8.35;;;;;;;;;;5141459;27;20213;-63
2023/06/18 05:47:09;;;;;;;8.27;7.68;;;;;;;;;;5140895;27;20241;-63
2023/06/18 05:49:37;;;;;;;7.90;7.30;;;;;;;;;;5141404;27;20210;-62
2023/06/18 05:52:05;;;;;;;8.07;7.45;;;;;;;;;;5140928;27;20217;-63
2023/06/18 05:54:32;;;;;;;8.38;7.78;;;;;;;;;;5141246;27;20202;-63
2023/06/18 05:57:00;;;;;;;8.25;7.65;;;;;;;;;;5141435;27;20210;-62
2023/06/18 05:59:27;;;;;;;7.78;7.18;;;;;;;;;;5141203;27;20199;-63
2023/06/18 06:01:54;;;;;;;8.35;7.75;;;;;;;;;;5141443;27;20605;-63
2023/06/18 06:04:23;;;;;;;9.40;8.60;;;;;;;;;;5141248;27;20278;-62
2023/06/18 06:06:50;;;;;;;8.10;7.40;;;;;;;;;;5141614;27;20550;-62
2023/06/18 06:09:18;;;;;;;8.13;7.53;;;;;;;;;;5141144;27;20252;-62
2023/06/18 06:11:46;;;;;;;8.85;8.15;;;;;;;;;;5140623;27;20616;-62
2023/06/18 06:14:13;;;;;;;8.68;7.88;;;;;;;;;;5140221;27;20683;-62
2023/06/18 06:16:40;;;;;;;8.38;7.75;;;;;;;;;;5140951;27;20202;-62
2023/06/18 06:19:08;;;;;;;9.60;8.80;;;;;;;;;;5140820;27;20198;-63
2023/06/18 06:21:36;;;;;;;8.70;8.00;;;;;;;;;;5140632;27;20226;-63
2023/06/18 06:24:05;;;;;;;9.48;8.77;;;;;;;;;;5140849;27;20206;-63
2023/06/18 06:26:32;;;;;;;9.90;9.10;;;;;;;;;;5140707;27;20291;-63
2023/06/18 06:29:00;;;;;;;10.40;9.50;;;;;;;;;;5140516;27;20209;-63
2023/06/18 06:31:28;;;;;;;9.00;8.20;;;;;;;;;;5140311;27;20262;-63
2023/06/18 06:33:55;;;;;;;9.30;8.50;;;;;;;;;;5140202;27;20210;-62
2023/06/18 06:36:22;;;;;;;9.90;9.10;;;;;;;;;;5140309;27;20202;-63
2023/06/18 06:38:51;;;;;;;9.85;9.05;;;;;;;;;;5140096;27;20217;-63
2023/06/18 06:41:18;;;;;;;9.38;8.68;;;;;;;;;;5139871;27;20638;-63
2023/06/18 06:43:46;;;;;;;10.43;9.52;;;;;;;;;;5139965;27;20215;-62
2023/06/18 06:46:13;;;;;;;9.50;8.80;;;;;;;;;;5139314;27;20249;-62
2023/06/18 06:48:40;;;;;;;9.85;9.05;;;;;;;;;;5140488;27;20547;-63
2023/06/18 06:51:08;;;;;;;10.68;9.77;;;;;;;;;;5139999;27;20684;-63
2023/06/18 06:53:35;;;;;;;10.30;9.40;;;;;;;;;;5139365;27;20202;-63
2023/06/18 06:56:04;;;;;;;10.32;9.52;;;;;;;;;;5139649;27;20202;-62
2023/06/18 06:58:31;;;;;;;10.18;9.40;;;;;;;;;;5139382;27;20206;-62
2023/06/18 07:00:59;;;;;;;10.57;9.77;;;;;;;;;;5139612;27;20230;-62
2023/06/18 07:03:26;;;;;;;10.48;9.68;;;;;;;;;;5140159;27;20202;-62
2023/06/18 07:05:54;;;;;;;10.38;9.50;;;;;;;;;;5139596;27;20554;-62
2023/06/18 07:08:21;;;;;;;9.52;8.73;;;;;;;;;;5139314;27;20232;-62
2023/06/18 07:10:48;;;;;;;9.85;9.00;;;;;;;;;;5139506;27;20301;-62
2023/06/18 07:13:18;;;;;;;10.57;9.77;;;;;;;;;;5138882;27;20228;-62
2023/06/18 07:15:45;;;;;;;10.57;9.68;;;;;;;;;;5139612;27;20210;-62
2023/06/18 07:18:13;;;;;;;10.90;10.00;;;;;;;;;;5139282;27;20202;-62
2023/06/18 07:20:40;;;;;;;9.82;9.02;;;;;;;;;;5139440;27;20233;-62
2023/06/18 07:23:08;;;;;;;10.20;9.40;;;;;;;;;;5139136;27;20210;-62
2023/06/18 07:25:35;;;;;;;10.10;9.30;;;;;;;;;;5139491;27;20214;-62
2023/06/18 07:28:02;;;;;;;9.90;9.07;;;;;;;;;;5138689;27;20201;-62
2023/06/18 07:30:31;;;;;;;10.60;9.63;;;;;;;;;;5138791;27;20213;-62
2023/06/18 07:32:59;;;;;;;9.57;8.77;;;;;;;;;;5138975;27;20213;-63
2023/06/18 07:35:26;;;;;;;9.50;8.80;;;;;;;;;;5138413;27;20203;-64
2023/06/18 07:37:53;;;;;;;9.52;8.73;;;;;;;;;;5138888;27;20239;-63
2023/06/18 07:40:21;;;;;;;9.07;8.32;;;;;;;;;;5137913;27;20590;-62
2023/06/18 07:42:48;;;;;;;9.55;8.75;;;;;;;;;;5138557;27;20230;-62
2023/06/18 07:45:16;;;;;;;8.73;8.02;;;;;;;;;;5138542;27;20205;-62
2023/06/18 07:47:44;;;;;;;8.38;7.65;;;;;;;;;;5138479;27;20238;-62
2023/06/18 07:50:12;;;;;;;7.90;7.30;;;;;;;;;;5138267;27;20232;-65
2023/06/18 07:52:39;;;;;;;8.20;7.60;;;;;;;;;;5138208;27;20202;-62
2023/06/18 07:55:07;;;;;;;8.30;7.70;;;;;;;;;;5137773;27;20202;-63
2023/06/18 07:57:35;;;;;;;8.10;7.30;;;;;;;;;;5138034;27;20213;-62
2023/06/18 08:00:02;;;;;;;8.40;7.80;;;;;;;;;;5138116;27;20228;-62
2023/06/18 08:02:29;;;;;;;8.30;7.60;;;;;;;;;;5137803;27;20218;-62
2023/06/18 08:04:58;;;;;;;8.55;7.85;;;;;;;;;;5138051;27;20638;-62
2023/06/18 08:07:25;;;;;;;7.93;7.32;;;;;;;;;;5137834;27;20202;-63
2023/06/18 08:09:53;;;;;;;7.97;7.38;;;;;;;;;;5137303;27;20202;-64
2023/06/18 08:12:20;;;;;;;8.30;7.70;;;;;;;;;;5137552;27;20205;-63
2023/06/18 08:14:47;;;;;;;9.13;8.32;;;;;;;;;;5137634;27;20205;-64
2023/06/18 08:17:16;;;;;;;8.80;8.10;;;;;;;;;;5137716;27;20199;-63
2023/06/18 08:19:45;;;;;;;8.57;7.88;;;;;;;;;;5137795;27;20209;-64
2023/06/18 08:22:13;;;;;;;8.30;7.60;;;;;;;;;;5137815;27;20233;-63
2023/06/18 08:24:41;;;;;;;9.20;8.48;;;;;;;;;;5137689;27;20209;-62
2023/06/18 08:27:09;;;;;;;8.75;8.02;;;;;;;;;;5137542;27;20208;-62
2023/06/18 08:29:36;;;;;;;8.98;8.18;;;;;;;;;;5137234;27;20297;-62
2023/06/18 08:32:05;;;;;;;8.20;7.40;;;;;;;;;;5137706;28;20213;-62
2023/06/18 08:34:32;;;;;;;9.07;8.30;;;;;;;;;;5137710;28;20209;-62
2023/06/18 08:37:00;;;;;;;8.80;8.07;;;;;;;;;;5136838;27;20202;-62
2023/06/18 08:39:30;;;;;;;8.98;8.27;;;;;;;;;;5138118;27;20217;-63
2023/06/18 08:41:59;;;;;;;8.88;8.18;;;;;;;;;;5137613;27;20659;-62
2023/06/18 08:44:27;;;;;;;8.77;8.07;;;;;;;;;;5136717;27;20296;-62
2023/06/18 08:46:59;;;;;;;9.38;8.50;;;;;;;;;;5137731;27;20264;-62
2023/06/18 08:49:28;;;;;;;9.68;8.88;;;;;;;;;;5137600;27;20206;-62
2023/06/18 08:51:55;;;;;;;8.80;8.10;;;;;;;;;;5137544;27;20639;-62
2023/06/18 08:54:24;;;;;;;8.68;7.97;;;;;;;;;;5136991;27;20202;-62
2023/06/18 08:56:59;;;;;;;9.23;8.43;;;;;;;;;;5137579;27;20669;-62
2023/06/18 08:59:27;;;;;;;8.88;8.18;;;;;;;;;;5137316;27;20206;-62
2023/06/18 09:01:55;;;;;;;9.32;8.48;;;;;;;;;;5136738;27;20253;-62
2023/06/18 09:04:23;;;;;;;9.10;8.40;;;;;;;;;;5136610;28;20578;-62
2023/06/18 09:06:50;;;;;;;9.07;8.38;;;;;;;;;;5136143;27;20202;-62
2023/06/18 09:09:18;;;;;;;8.98;8.18;;;;;;;;;;5136735;28;20284;-62
2023/06/18 09:11:45;;;;;;;9.68;8.85;;;;;;;;;;5136117;27;20190;-62
2023/06/18 09:14:16;;;;;;;8.43;7.80;;;;;;;;;;5136737;27;20212;-62
2023/06/18 09:16:43;;;;;;;8.77;8.00;;;;;;;;;;5136114;27;20206;-61
2023/06/18 09:19:11;;;;;;;8.77;8.07;;;;;;;;;;5136651;28;20225;-61
2023/06/18 09:21:38;;;;;;;8.90;8.20;;;;;;;;;;5136630;27;20641;-62
2023/06/18 09:24:07;;;;;;;9.18;8.45;;;;;;;;;;5141057;27;20650;-62
2023/06/18 09:26:35;;;;;;;9.20;8.40;;;;;;;;;;5140219;27;20217;-62
2023/06/18 09:29:05;;;;;;;8.70;8.10;;;;;;;;;;5139675;27;20210;-62
2023/06/18 09:31:35;;;;;;;8.48;7.88;;;;;;;;;;5140045;27;20202;-62
2023/06/18 09:34:13;;;;;;;7.97;7.38;;;;;;;;;;5140341;27;20525;-62
2023/06/18 09:36:41;;;;;;;8.50;7.80;;;;;;;;;;5140309;27;20202;-62
2023/06/18 09:39:15;;;;;;;7.95;7.35;;;;;;;;;;5140147;27;20207;-62
2023/06/18 09:41:43;;;;;;;8.02;7.40;;;;;;;;;;5140573;27;20617;-62
2023/06/18 09:44:10;;;;;;;8.45;7.65;;;;;;;;;;5140710;27;20213;-63
2023/06/18 09:46:39;;;;;;;8.40;7.70;;;;;;;;;;5139856;27;20229;-62
2023/06/18 09:49:06;;;;;;;8.52;7.75;;;;;;;;;;5140338;27;20229;-62
2023/06/18 09:51:40;;;;;;;7.70;7.00;;;;;;;;;;5140599;27;20203;-63
2023/06/18 09:54:07;;;;;;;7.80;7.20;;;;;;;;;;5139573;27;20202;-62
2023/06/18 09:56:35;;;;;;;7.93;7.32;;;;;;;;;;5140040;27;20209;-62
2023/06/18 09:59:03;;;;;;;7.53;6.93;;;;;;;;;;5139886;27;20202;-62
2023/06/18 10:01:44;;;;;;;7.93;7.32;;;;;;;;;;5139775;27;20230;-62
2023/06/18 10:04:13;;;;;;;7.55;6.95;;;;;;;;;;5138862;27;20232;-62
2023/06/18 10:06:41;;;;;;;7.15;6.55;;;;;;;;;;5139400;27;20198;-63
2023/06/18 10:09:09;;;;;;;7.15;6.65;;;;;;;;;;5139299;27;20206;-62
2023/06/18 10:11:37;;;;;;;7.30;6.70;;;;;;;;;;5138999;27;20195;-62
2023/06/18 10:14:07;;;;;;;7.53;6.93;;;;;;;;;;5139340;27;20202;-62
2023/06/18 10:16:35;;;;;;;7.47;6.88;;;;;;;;;;5139748;27;20207;-62
2023/06/18 10:19:04;;;;;;;7.22;6.63;;;;;;;;;;5138826;27;20208;-62
2023/06/18 10:21:33;;;;;;;6.55;6.00;;;;;;;;;;5138686;27;20232;-63
2023/06/18 10:24:04;;;;;;;7.05;6.45;;;;;;;;;;5138803;27;20206;-62
2023/06/18 10:26:32;;;;;;;7.35;6.75;;;;;;;;;;5138858;27;20203;-62
2023/06/18 10:28:59;;;;;;;7.22;6.63;;;;;;;;;;5138628;27;20213;-61
2023/06/18 10:31:27;;;;;;;6.75;6.22;;;;;;;;;;5138661;27;20456;-62
2023/06/18 10:33:55;;;;;;;7.15;6.55;;;;;;;;;;5137515;27;20223;-62
2023/06/18 10:36:23;;;;;;;7.10;6.50;;;;;;;;;;5138122;27;20203;-62
2023/06/18 10:38:51;;;;;;;7.55;6.95;;;;;;;;;;5139024;27;20209;-63
2023/06/18 10:41:20;;;;;;;6.70;6.15;;;;;;;;;;5139375;27;20216;-63
2023/06/18 10:43:50;;;;;;;7.45;6.68;;;;;;;;;;5139427;27;20201;-62
2023/06/18 10:46:18;;;;;;;6.78;6.28;;;;;;;;;;5138927;27;20234;-63
2023/06/18 10:49:00;;;;;;;6.72;6.22;;;;;;;;;;5138522;27;20213;-63
2023/06/18 10:51:28;;;;;;;6.50;6.00;;;;;;;;;;5139326;27;20198;-62
2023/06/18 10:54:19;;;;;;;6.80;6.15;;;;;;;;;;5138113;27;20202;-63
2023/06/18 10:56:52;;;;;;;7.07;6.47;;;;;;;;;;5137878;27;20237;-62
2023/06/18 10:59:34;;;;;;;6.75;6.25;;;;;;;;;;5138395;27;20198;-62
2023/06/18 11:02:03;;;;;;;6.40;5.90;;;;;;;;;;5138313;27;20767;-62
2023/06/18 11:04:31;;;;;;;6.68;6.18;;;;;;;;;;5138754;27;20225;-62
2023/06/18 11:07:19;;;;;;;6.60;6.10;;;;;;;;;;5137442;27;20202;-62
2023/06/18 11:09:52;;;;;;;6.65;6.15;;;;;;;;;;5130356;27;20648;-62
2023/06/18 11:12:21;;;;;;;6.20;5.80;;;;;;;;;;5138262;27;20190;-62
2023/06/18 11:15:07;;;;;;;6.85;6.30;;;;;;;;;;5137423;27;20520;-62
2023/06/18 11:17:34;;;;;;;6.93;6.32;;;;;;;;;;5138032;27;20217;-62
2023/06/18 11:20:03;;;;;;;6.80;6.20;;;;;;;;;;5137795;27;20218;-62
2023/06/18 11:22:31;;;;;;;6.32;5.90;;;;;;;;;;5137602;27;20219;-63
2023/06/18 11:24:59;;;;;;;6.32;5.80;;;;;;;;;;5137919;27;20613;-63
2023/06/18 11:27:30;;;;;;;6.25;5.75;;;;;;;;;;5137746;27;20206;-62
2023/06/18 11:29:57;;;;;;;6.68;5.95;;;;;;;;;;5137288;27;20201;-62
2023/06/18 11:32:25;;;;;;;6.65;6.05;;;;;;;;;;5137280;27;20213;-62
2023/06/18 11:34:52;;;;;;;6.22;5.72;;;;;;;;;;5137277;27;20608;-63
2023/06/18 11:37:20;;;;;;;6.68;5.97;;;;;;;;;;5137051;27;20210;-62
2023/06/18 11:39:48;;;;;;;6.82;6.32;;;;;;;;;;5136298;27;20594;-63
2023/06/18 11:42:18;;;;;;;6.50;6.00;;;;;;;;;;5137209;27;20226;-62
2023/06/18 11:44:53;;;;;;;7.13;6.53;;;;;;;;;;5136818;27;20293;-62
2023/06/18 11:47:21;;;;;;;6.65;6.15;;;;;;;;;;5136942;27;20233;-62
2023/06/18 11:49:49;;;;;;;6.85;6.25;;;;;;;;;;5136774;27;20218;-62
2023/06/18 11:52:18;;;;;;;6.43;5.93;;;;;;;;;;5137003;27;20455;-62
2023/06/18 11:54:46;;;;;;;6.47;5.97;;;;;;;;;;5137285;27;20549;-62
2023/06/18 11:57:13;;;;;;;6.68;6.18;;;;;;;;;;5136945;27;20202;-62
2023/06/18 11:59:41;;;;;;;6.82;6.30;;;;;;;;;;5136192;27;20202;-62
2023/06/18 12:02:13;;;;;;;6.40;5.90;;;;;;;;;;5137502;27;20253;-62
2023/06/18 12:04:41;;;;;;;6.32;5.85;;;;;;;;;;5137477;27;20209;-62
2023/06/18 12:07:08;;;;;;;5.97;5.47;;;;;;;;;;5137244;27;20210;-62
2023/06/18 12:09:37;;;;;;;5.93;5.50;;;;;;;;;;5137474;27;20194;-62
2023/06/18 12:12:12;;;;;;;6.28;5.78;;;;;;;;;;5137240;27;20202;-62
2023/06/18 12:14:40;;;;;;;6.90;6.28;;;;;;;;;;5136731;27;20241;-62
2023/06/18 12:17:10;;;;;;;6.57;6.07;;;;;;;;;;5137303;27;20209;-62
2023/06/18 12:19:39;;;;;;;6.70;6.20;;;;;;;;;;5136537;27;20198;-62
2023/06/18 12:22:08;;;;;;;6.68;6.07;;;;;;;;;;5136635;27;20229;-63
2023/06/18 12:24:36;;;;;;;6.45;5.95;;;;;;;;;;5134263;27;20199;-62
2023/06/18 12:27:04;;;;;;;6.20;5.70;;;;;;;;;;5127572;27;20764;-62
2023/06/18 12:29:31;;;;;;;6.63;6.13;;;;;;;;;;5135997;27;20289;-62
2023/06/18 12:32:03;;;;;;;6.82;6.22;;;;;;;;;;5135877;27;20205;-62
2023/06/18 12:34:31;;;;;;;6.78;6.28;;;;;;;;;;5135968;28;20262;-62
2023/06/18 12:37:00;;;;;;;7.10;6.60;;;;;;;;;;5135138;28;20202;-62
2023/06/18 12:39:27;;;;;;;7.38;6.78;;;;;;;;;;5135880;27;20213;-62
2023/06/18 12:41:55;;;;;;;7.25;6.57;;;;;;;;;;5135688;27;20213;-62
2023/06/18 12:44:23;;;;;;;6.88;6.28;;;;;;;;;;5135075;27;20270;-62
2023/06/18 12:46:52;;;;;;;6.70;6.20;;;;;;;;;;5104872;28;20326;-62
2023/06/18 12:49:20;;;;;;;6.82;6.32;;;;;;;;;;5115904;28;20268;-63
2023/06/18 12:51:49;;;;;;;7.00;6.50;;;;;;;;;;5115397;28;20582;-62
2023/06/18 12:54:20;;;;;;;6.65;6.15;;;;;;;;;;5115689;28;20203;-62
2023/06/18 12:56:48;;;;;;;7.43;6.57;;;;;;;;;;5114691;28;20445;-62
2023/06/18 12:59:17;;;;;;;7.15;6.55;;;;;;;;;;5119867;28;20206;-63
2023/06/18 13:01:45;;;;;;;6.63;6.13;;;;;;;;;;5120089;28;20202;-62
2023/06/18 13:04:13;;;;;;;6.82;6.32;;;;;;;;;;5119481;28;20523;-62
2023/06/18 13:06:40;;;;;;;7.13;6.53;;;;;;;;;;5119953;28;20214;-62
2023/06/18 13:09:08;;;;;;;7.30;6.70;;;;;;;;;;5120212;28;20490;-63
2023/06/18 13:11:38;;;;;;;7.97;7.28;;;;;;;;;;5119842;28;20220;-62
2023/06/18 13:14:05;;;;;;;7.55;6.95;;;;;;;;;;5119016;28;20202;-62
2023/06/18 13:16:33;;;;;;;7.82;7.22;;;;;;;;;;5118596;28;20694;-62
2023/06/18 13:19:04;;;;;;;7.70;7.10;;;;;;;;;;5118187;28;20302;-62
2023/06/18 13:21:33;;;;;;;7.60;7.00;;;;;;;;;;5119463;28;20283;-62
2023/06/18 13:24:00;;;;;;;7.38;6.78;;;;;;;;;;5119174;28;20244;-62
2023/06/18 13:26:29;;;;;;;7.57;6.97;;;;;;;;;;5119775;28;20221;-63
2023/06/18 13:28:58;;;;;;;7.95;7.25;;;;;;;;;;5120338;28;20659;-62
2023/06/18 13:31:25;;;;;;;8.50;7.80;;;;;;;;;;5119244;28;20207;-62
2023/06/18 13:33:52;;;;;;;7.63;7.03;;;;;;;;;;5118715;28;20206;-62
2023/06/18 13:36:20;;;;;;;7.30;6.80;;;;;;;;;;5118457;28;20211;-62
2023/06/18 13:38:47;;;;;;;7.57;6.97;;;;;;;;;;5117905;28;20227;-62
2023/06/18 13:41:15;;;;;;;7.72;7.13;;;;;;;;;;5117756;28;20214;-63
2023/06/18 13:43:42;;;;;;;8.23;7.63;;;;;;;;;;5118241;28;20284;-63
2023/06/18 13:46:11;;;;;;;7.95;7.25;;;;;;;;;;5114039;28;20231;-63
2023/06/18 13:48:38;;;;;;;7.75;7.15;;;;;;;;;;5099127;28;20215;-62
2023/06/18 13:51:05;;;;;;;7.47;6.90;;;;;;;;;;5097768;28;20210;-62
2023/06/18 13:53:33;;;;;;;7.65;7.05;;;;;;;;;;5097836;28;20210;-62
2023/06/18 13:56:01;;;;;;;7.72;7.03;;;;;;;;;;5097470;28;20653;-62
2023/06/18 13:58:29;;;;;;;7.50;7.00;;;;;;;;;;5098097;28;20598;-62
2023/06/18 14:00:57;;;;;;;7.68;7.18;;;;;;;;;;5098022;28;20286;-64
2023/06/18 14:03:25;;;;;;;7.40;6.85;;;;;;;;;;5098005;28;20528;-61
2023/06/18 14:05:53;;;;;;;7.85;7.25;;;;;;;;;;5098425;28;20584;-62
2023/06/18 14:08:20;;;;;;;7.68;7.07;;;;;;;;;;5097937;28;20210;-62
2023/06/18 14:10:47;;;;;;;7.90;7.30;;;;;;;;;;5097086;28;20208;-62
2023/06/18 14:13:15;;;;;;;7.53;6.93;;;;;;;;;;5097685;28;20196;-62
2023/06/18 14:15:42;;;;;;;7.88;7.18;;;;;;;;;;5097779;28;20809;-62
2023/06/18 14:18:09;;;;;;;8.02;7.43;;;;;;;;;;5097888;28;20200;-62
2023/06/18 14:20:38;;;;;;;7.70;7.10;;;;;;;;;;5097826;28;20222;-62
2023/06/18 14:23:06;;;;;;;7.30;6.80;;;;;;;;;;5097195;28;20235;-62
2023/06/18 14:25:33;;;;;;;7.60;7.00;;;;;;;;;;5116996;28;20579;-62
2023/06/18 14:28:00;;;;;;;7.75;7.15;;;;;;;;;;5117403;28;20238;-62
2023/06/18 14:30:30;;;;;;;7.80;7.18;;;;;;;;;;5117866;28;20203;-63
2023/06/18 14:32:57;;;;;;;7.90;7.30;;;;;;;;;;5117486;28;20752;-62
2023/06/18 14:35:25;;;;;;;7.70;7.10;;;;;;;;;;5117269;28;20613;-62
2023/06/18 14:37:54;;;;;;;7.90;7.30;;;;;;;;;;5117668;28;20762;-62
2023/06/18 14:40:22;;;;;;;8.13;7.43;;;;;;;;;;5117882;28;20495;-62
2023/06/18 14:42:50;;;;;;;7.88;7.28;;;;;;;;;;5117499;28;20258;-62
2023/06/18 14:45:17;;;;;;;7.85;7.25;;;;;;;;;;5118071;28;20225;-62
2023/06/18 14:47:44;;;;;;;7.80;7.20;;;;;;;;;;5116703;28;20246;-62
2023/06/18 14:50:14;;;;;;;7.07;6.57;;;;;;;;;;5117034;28;20657;-62